KNRS

Imperial Beach Nolf (Ream Field) Airport

Imperial Beach, California, USA
METAR KNRS 202356Z 26008KT 8SM FEW016 BKN250 24/18 A2991 RMK AO2 SLP127 T02390183 10261 20239 56009
Observed Flight Rules
Aug-20 @ 23:56 UTC (11 minutes ago) Visual Flight Rules
Wind Visibility Clouds
260° at 8 knots 8 miles
  • Few at 1,600' AGL
  • Broken at 25,000' AGL
Temperatures Readings
Current 24°C / 75°F
Dewpoint 18°C / 64°F
Humidity 69%
Altimeter 29.91" Hg
Pressure 1012.7 hPa
Elevation 7
METAR KNRS 202356Z 26008KT 8SM FEW016 BKN250 24/18 A2991 RMK AO2 SLP127 T02390183 10261 20239 56009
Observed Flight Rules
Aug-20 @ 23:56 UTC
(11 minutes ago)
VFR
Wind Visibility
260° at 8 knots 8 miles
Clouds
  • Few at 1,600' AGL
  • Broken at 25,000' AGL
Temperature Dewpoint
24°C / 75°F 18°C / 64°F
Humidity Altimeter Pressure
69% 29.91" Hg 1012.7 hPa